Hillje, Texas
Current Conditions -  °F | °C
As of 6:15 PM on Sunday 23 Nov 2014 (Local Time) from KARM Reporting Station
Clear Clear  
Wind Chill: 66°   Ceiling: Unl
Heat Index: 66°   Visibility: 10mi
Dew Point: 61°   Wind: 9mph
Humidity: 83%   Direction: 190°S
Pressure: 29.61"   Gusts: NA
Location:  29.1916°N, 96.2212°W
Report Text: KARM 240015Z AUTO 19008KT 10SM CLR 19/16 A2961 RMK AO2 T01900160
Loading
Personal Weather Stations






























Interactive Weather Map New forecast layout! Learn more

10-Day Weather Forecast

Advertisements
Track Severe Weather on mobile